sensor_id;sensor_type;location;lat;lon;timestamp;P1;durP1;ratioP1;P2;durP2;ratioP2
64795;SDS011;51229;51.980;6.722;2022-11-20T00:00:43;21.98;;;12.10;;
64795;SDS011;51229;51.980;6.722;2022-11-20T00:03:09;22.30;;;12.40;;
64795;SDS011;51229;51.980;6.722;2022-11-20T00:05:34;23.40;;;12.18;;
64795;SDS011;51229;51.980;6.722;2022-11-20T00:08:00;20.00;;;11.80;;
64795;SDS011;51229;51.980;6.722;2022-11-20T00:10:26;24.00;;;12.48;;
64795;SDS011;51229;51.980;6.722;2022-11-20T00:12:51;22.77;;;12.52;;
64795;SDS011;51229;51.980;6.722;2022-11-20T00:15:17;24.48;;;11.85;;
64795;SDS011;51229;51.980;6.722;2022-11-20T00:17:43;20.15;;;11.77;;
64795;SDS011;51229;51.980;6.722;2022-11-20T00:20:08;20.67;;;11.77;;
64795;SDS011;51229;51.980;6.722;2022-11-20T00:22:35;21.23;;;11.90;;
64795;SDS011;51229;51.980;6.722;2022-11-20T00:25:00;24.23;;;12.77;;
64795;SDS011;51229;51.980;6.722;2022-11-20T00:27:26;20.27;;;12.18;;
64795;SDS011;51229;51.980;6.722;2022-11-20T00:29:51;20.08;;;12.32;;
64795;SDS011;51229;51.980;6.722;2022-11-20T00:32:17;21.27;;;11.82;;
64795;SDS011;51229;51.980;6.722;2022-11-20T00:34:43;22.52;;;13.02;;
64795;SDS011;51229;51.980;6.722;2022-11-20T00:37:08;25.85;;;13.13;;
64795;SDS011;51229;51.980;6.722;2022-11-20T00:39:34;21.85;;;12.75;;
64795;SDS011;51229;51.980;6.722;2022-11-20T00:42:00;24.25;;;13.55;;
64795;SDS011;51229;51.980;6.722;2022-11-20T00:44:25;22.55;;;14.18;;
64795;SDS011;51229;51.980;6.722;2022-11-20T00:46:51;21.75;;;12.57;;
64795;SDS011;51229;51.980;6.722;2022-11-20T00:49:19;23.38;;;12.90;;
64795;SDS011;51229;51.980;6.722;2022-11-20T00:51:44;24.73;;;13.93;;
64795;SDS011;51229;51.980;6.722;2022-11-20T00:54:10;25.35;;;14.90;;
64795;SDS011;51229;51.980;6.722;2022-11-20T00:56:36;23.60;;;13.82;;
64795;SDS011;51229;51.980;6.722;2022-11-20T00:59:02;23.98;;;14.48;;
64795;SDS011;51229;51.980;6.722;2022-11-20T01:01:27;25.10;;;14.07;;
64795;SDS011;51229;51.980;6.722;2022-11-20T01:03:57;27.40;;;15.65;;
64795;SDS011;51229;51.980;6.722;2022-11-20T01:06:26;29.25;;;15.38;;
64795;SDS011;51229;51.980;6.722;2022-11-20T01:08:55;23.38;;;12.88;;
64795;SDS011;51229;51.980;6.722;2022-11-20T01:11:23;26.17;;;14.60;;
64795;SDS011;51229;51.980;6.722;2022-11-20T01:13:54;24.40;;;13.88;;
64795;SDS011;51229;51.980;6.722;2022-11-20T01:16:25;23.17;;;13.93;;
64795;SDS011;51229;51.980;6.722;2022-11-20T01:18:53;21.85;;;12.65;;
64795;SDS011;51229;51.980;6.722;2022-11-20T01:21:22;25.27;;;13.48;;
64795;SDS011;51229;51.980;6.722;2022-11-20T01:23:50;21.90;;;12.73;;
64795;SDS011;51229;51.980;6.722;2022-11-20T01:26:20;23.05;;;12.85;;
64795;SDS011;51229;51.980;6.722;2022-11-20T01:28:48;22.00;;;11.88;;
64795;SDS011;51229;51.980;6.722;2022-11-20T01:31:24;18.75;;;11.35;;
64795;SDS011;51229;51.980;6.722;2022-11-20T01:33:52;23.17;;;11.75;;
64795;SDS011;51229;51.980;6.722;2022-11-20T01:36:21;22.58;;;12.65;;
64795;SDS011;51229;51.980;6.722;2022-11-20T01:38:51;23.80;;;12.95;;
64795;SDS011;51229;51.980;6.722;2022-11-20T01:41:18;19.55;;;11.38;;
64795;SDS011;51229;51.980;6.722;2022-11-20T01:44:03;18.85;;;10.65;;
64795;SDS011;51229;51.980;6.722;2022-11-20T01:46:30;18.95;;;10.25;;
64795;SDS011;51229;51.980;6.722;2022-11-20T01:54:00;22.17;;;11.50;;
64795;SDS011;51229;51.980;6.722;2022-11-20T01:56:28;19.42;;;10.77;;
64795;SDS011;51229;51.980;6.722;2022-11-20T01:59:00;17.33;;;10.00;;
64795;SDS011;51229;51.980;6.722;2022-11-20T02:01:29;20.20;;;11.23;;
64795;SDS011;51229;51.980;6.722;2022-11-20T02:03:54;17.38;;;10.50;;
64795;SDS011;51229;51.980;6.722;2022-11-20T02:06:55;21.58;;;11.27;;
64795;SDS011;51229;51.980;6.722;2022-11-20T02:09:18;18.98;;;11.45;;
64795;SDS011;51229;51.980;6.722;2022-11-20T02:11:43;19.55;;;10.68;;
64795;SDS011;51229;51.980;6.722;2022-11-20T02:14:09;18.70;;;10.50;;
64795;SDS011;51229;51.980;6.722;2022-11-20T02:16:45;19.35;;;10.05;;
64795;SDS011;51229;51.980;6.722;2022-11-20T02:19:17;20.23;;;10.98;;
64795;SDS011;51229;51.980;6.722;2022-11-20T02:24:23;18.77;;;10.52;;
64795;SDS011;51229;51.980;6.722;2022-11-20T02:26:53;17.30;;;9.73;;
64795;SDS011;51229;51.980;6.722;2022-11-20T02:31:53;16.10;;;9.50;;
64795;SDS011;51229;51.980;6.722;2022-11-20T02:34:21;18.48;;;10.07;;
64795;SDS011;51229;51.980;6.722;2022-11-20T02:36:47;17.67;;;9.30;;
64795;SDS011;51229;51.980;6.722;2022-11-20T02:39:14;19.23;;;9.38;;
64795;SDS011;51229;51.980;6.722;2022-11-20T02:41:42;17.17;;;10.00;;
64795;SDS011;51229;51.980;6.722;2022-11-20T02:44:08;17.95;;;10.30;;
64795;SDS011;51229;51.980;6.722;2022-11-20T02:46:33;18.13;;;10.75;;
64795;SDS011;51229;51.980;6.722;2022-11-20T02:49:00;17.77;;;9.57;;
64795;SDS011;51229;51.980;6.722;2022-11-20T02:51:27;19.45;;;9.90;;
64795;SDS011;51229;51.980;6.722;2022-11-20T02:53:53;17.95;;;9.52;;
64795;SDS011;51229;51.980;6.722;2022-11-20T02:56:19;16.25;;;9.77;;
64795;SDS011;51229;51.980;6.722;2022-11-20T02:58:45;15.38;;;9.15;;
64795;SDS011;51229;51.980;6.722;2022-11-20T03:01:11;18.92;;;9.40;;
64795;SDS011;51229;51.980;6.722;2022-11-20T03:03:37;15.23;;;8.90;;
64795;SDS011;51229;51.980;6.722;2022-11-20T03:06:03;16.92;;;9.02;;
64795;SDS011;51229;51.980;6.722;2022-11-20T03:08:28;15.82;;;9.07;;
64795;SDS011;51229;51.980;6.722;2022-11-20T03:10:54;16.08;;;9.10;;
64795;SDS011;51229;51.980;6.722;2022-11-20T03:13:20;16.48;;;8.30;;
64795;SDS011;51229;51.980;6.722;2022-11-20T03:15:45;17.95;;;9.60;;
64795;SDS011;51229;51.980;6.722;2022-11-20T03:18:11;16.38;;;9.13;;
64795;SDS011;51229;51.980;6.722;2022-11-20T03:20:38;15.70;;;9.18;;
64795;SDS011;51229;51.980;6.722;2022-11-20T03:23:04;19.02;;;9.13;;
64795;SDS011;51229;51.980;6.722;2022-11-20T03:25:30;16.35;;;8.30;;
64795;SDS011;51229;51.980;6.722;2022-11-20T03:27:55;16.13;;;9.18;;
64795;SDS011;51229;51.980;6.722;2022-11-20T03:30:21;16.98;;;9.15;;
64795;SDS011;51229;51.980;6.722;2022-11-20T03:32:47;15.70;;;8.95;;
64795;SDS011;51229;51.980;6.722;2022-11-20T03:35:12;17.30;;;9.05;;
64795;SDS011;51229;51.980;6.722;2022-11-20T03:37:38;18.73;;;9.20;;
64795;SDS011;51229;51.980;6.722;2022-11-20T03:40:04;14.23;;;8.68;;
64795;SDS011;51229;51.980;6.722;2022-11-20T03:42:30;15.52;;;8.70;;
64795;SDS011;51229;51.980;6.722;2022-11-20T03:45:17;16.73;;;8.93;;
64795;SDS011;51229;51.980;6.722;2022-11-20T03:47:44;19.88;;;9.48;;
64795;SDS011;51229;51.980;6.722;2022-11-20T03:50:10;15.80;;;8.80;;
64795;SDS011;51229;51.980;6.722;2022-11-20T03:52:40;14.43;;;8.65;;
64795;SDS011;51229;51.980;6.722;2022-11-20T03:55:06;17.15;;;9.45;;
64795;SDS011;51229;51.980;6.722;2022-11-20T03:57:32;18.73;;;9.43;;
64795;SDS011;51229;51.980;6.722;2022-11-20T03:59:58;17.25;;;8.88;;
64795;SDS011;51229;51.980;6.722;2022-11-20T04:02:24;14.63;;;8.48;;
64795;SDS011;51229;51.980;6.722;2022-11-20T04:04:50;16.13;;;9.07;;
64795;SDS011;51229;51.980;6.722;2022-11-20T04:07:15;13.57;;;8.23;;
64795;SDS011;51229;51.980;6.722;2022-11-20T04:09:41;16.70;;;8.85;;
64795;SDS011;51229;51.980;6.722;2022-11-20T04:12:07;16.92;;;9.10;;
64795;SDS011;51229;51.980;6.722;2022-11-20T04:14:32;16.38;;;8.45;;
64795;SDS011;51229;51.980;6.722;2022-11-20T04:16:58;16.67;;;9.20;;
64795;SDS011;51229;51.980;6.722;2022-11-20T04:19:23;17.25;;;9.25;;
64795;SDS011;51229;51.980;6.722;2022-11-20T04:21:49;15.25;;;8.50;;
64795;SDS011;51229;51.980;6.722;2022-11-20T04:24:15;16.25;;;8.60;;
64795;SDS011;51229;51.980;6.722;2022-11-20T04:26:40;17.80;;;8.55;;
64795;SDS011;51229;51.980;6.722;2022-11-20T04:29:06;14.90;;;8.55;;
64795;SDS011;51229;51.980;6.722;2022-11-20T04:31:35;16.35;;;8.38;;
64795;SDS011;51229;51.980;6.722;2022-11-20T04:34:02;16.15;;;8.40;;
64795;SDS011;51229;51.980;6.722;2022-11-20T04:36:30;14.70;;;8.23;;
64795;SDS011;51229;51.980;6.722;2022-11-20T04:38:56;15.32;;;8.55;;
64795;SDS011;51229;51.980;6.722;2022-11-20T04:41:25;15.40;;;8.93;;
64795;SDS011;51229;51.980;6.722;2022-11-20T04:43:54;14.10;;;8.20;;
64795;SDS011;51229;51.980;6.722;2022-11-20T04:46:24;15.20;;;8.25;;
64795;SDS011;51229;51.980;6.722;2022-11-20T04:48:51;16.70;;;8.70;;
64795;SDS011;51229;51.980;6.722;2022-11-20T04:51:17;16.60;;;8.77;;
64795;SDS011;51229;51.980;6.722;2022-11-20T04:53:42;14.63;;;7.95;;
64795;SDS011;51229;51.980;6.722;2022-11-20T04:56:10;16.20;;;8.85;;
64795;SDS011;51229;51.980;6.722;2022-11-20T04:58:37;14.65;;;8.63;;
64795;SDS011;51229;51.980;6.722;2022-11-20T05:01:04;15.25;;;7.95;;
64795;SDS011;51229;51.980;6.722;2022-11-20T05:03:49;17.67;;;8.88;;
64795;SDS011;51229;51.980;6.722;2022-11-20T05:06:16;16.08;;;8.63;;
64795;SDS011;51229;51.980;6.722;2022-11-20T05:08:43;19.00;;;8.57;;
64795;SDS011;51229;51.980;6.722;2022-11-20T05:13:36;15.73;;;8.73;;
64795;SDS011;51229;51.980;6.722;2022-11-20T05:16:06;14.13;;;8.10;;
64795;SDS011;51229;51.980;6.722;2022-11-20T05:18:36;15.18;;;7.88;;
64795;SDS011;51229;51.980;6.722;2022-11-20T05:21:03;18.33;;;9.32;;
64795;SDS011;51229;51.980;6.722;2022-11-20T05:23:29;20.05;;;8.45;;
64795;SDS011;51229;51.980;6.722;2022-11-20T05:25:56;15.25;;;8.38;;
64795;SDS011;51229;51.980;6.722;2022-11-20T05:28:23;20.05;;;9.02;;
64795;SDS011;51229;51.980;6.722;2022-11-20T05:30:48;16.15;;;9.10;;
64795;SDS011;51229;51.980;6.722;2022-11-20T05:33:14;14.85;;;8.38;;
64795;SDS011;51229;51.980;6.722;2022-11-20T05:35:40;18.05;;;9.18;;
64795;SDS011;51229;51.980;6.722;2022-11-20T05:38:05;18.30;;;8.77;;
64795;SDS011;51229;51.980;6.722;2022-11-20T05:40:31;16.42;;;8.07;;
64795;SDS011;51229;51.980;6.722;2022-11-20T05:42:57;15.93;;;8.57;;
64795;SDS011;51229;51.980;6.722;2022-11-20T05:45:22;17.17;;;8.95;;
64795;SDS011;51229;51.980;6.722;2022-11-20T05:47:48;16.83;;;9.13;;
64795;SDS011;51229;51.980;6.722;2022-11-20T05:50:14;15.55;;;8.25;;
64795;SDS011;51229;51.980;6.722;2022-11-20T05:52:40;15.70;;;9.38;;
64795;SDS011;51229;51.980;6.722;2022-11-20T05:55:06;19.48;;;9.13;;
64795;SDS011;51229;51.980;6.722;2022-11-20T05:57:32;17.85;;;9.98;;
64795;SDS011;51229;51.980;6.722;2022-11-20T05:59:57;17.42;;;10.20;;
64795;SDS011;51229;51.980;6.722;2022-11-20T06:02:23;18.42;;;10.20;;
64795;SDS011;51229;51.980;6.722;2022-11-20T06:04:49;16.98;;;9.25;;
64795;SDS011;51229;51.980;6.722;2022-11-20T06:07:15;18.13;;;9.38;;
64795;SDS011;51229;51.980;6.722;2022-11-20T06:09:40;16.63;;;9.75;;
64795;SDS011;51229;51.980;6.722;2022-11-20T06:12:06;18.25;;;8.88;;
64795;SDS011;51229;51.980;6.722;2022-11-20T06:14:32;16.48;;;8.70;;
64795;SDS011;51229;51.980;6.722;2022-11-20T06:16:58;18.10;;;9.85;;
64795;SDS011;51229;51.980;6.722;2022-11-20T06:19:24;19.80;;;9.63;;
64795;SDS011;51229;51.980;6.722;2022-11-20T06:21:50;15.63;;;8.45;;
64795;SDS011;51229;51.980;6.722;2022-11-20T06:24:15;15.32;;;8.55;;
64795;SDS011;51229;51.980;6.722;2022-11-20T06:26:41;16.92;;;8.60;;
64795;SDS011;51229;51.980;6.722;2022-11-20T06:29:07;14.55;;;8.40;;
64795;SDS011;51229;51.980;6.722;2022-11-20T06:31:33;15.65;;;8.38;;
64795;SDS011;51229;51.980;6.722;2022-11-20T06:34:03;14.45;;;8.25;;
64795;SDS011;51229;51.980;6.722;2022-11-20T06:36:30;16.38;;;8.40;;
64795;SDS011;51229;51.980;6.722;2022-11-20T06:38:57;13.25;;;7.75;;
64795;SDS011;51229;51.980;6.722;2022-11-20T06:41:22;18.67;;;8.65;;
64795;SDS011;51229;51.980;6.722;2022-11-20T06:43:48;15.98;;;8.35;;
64795;SDS011;51229;51.980;6.722;2022-11-20T06:46:15;18.35;;;8.73;;
64795;SDS011;51229;51.980;6.722;2022-11-20T06:48:42;14.57;;;7.60;;
64795;SDS011;51229;51.980;6.722;2022-11-20T06:51:08;17.65;;;9.02;;
64795;SDS011;51229;51.980;6.722;2022-11-20T06:53:34;13.95;;;8.15;;
64795;SDS011;51229;51.980;6.722;2022-11-20T06:56:00;15.70;;;8.18;;
64795;SDS011;51229;51.980;6.722;2022-11-20T06:58:26;15.32;;;8.55;;
64795;SDS011;51229;51.980;6.722;2022-11-20T07:00:53;15.27;;;8.48;;
64795;SDS011;51229;51.980;6.722;2022-11-20T07:03:22;15.88;;;8.00;;
64795;SDS011;51229;51.980;6.722;2022-11-20T07:05:48;16.65;;;8.05;;
64795;SDS011;51229;51.980;6.722;2022-11-20T07:08:14;14.48;;;8.45;;
64795;SDS011;51229;51.980;6.722;2022-11-20T07:10:39;15.30;;;8.55;;
64795;SDS011;51229;51.980;6.722;2022-11-20T07:13:05;16.48;;;8.25;;
64795;SDS011;51229;51.980;6.722;2022-11-20T07:15:32;14.63;;;8.13;;
64795;SDS011;51229;51.980;6.722;2022-11-20T07:18:00;16.17;;;8.13;;
64795;SDS011;51229;51.980;6.722;2022-11-20T07:20:26;15.77;;;8.30;;
64795;SDS011;51229;51.980;6.722;2022-11-20T07:22:53;14.82;;;8.68;;
64795;SDS011;51229;51.980;6.722;2022-11-20T07:25:22;14.70;;;7.80;;
64795;SDS011;51229;51.980;6.722;2022-11-20T07:27:49;17.60;;;8.65;;
64795;SDS011;51229;51.980;6.722;2022-11-20T07:30:15;16.13;;;8.13;;
64795;SDS011;51229;51.980;6.722;2022-11-20T07:32:41;17.73;;;8.65;;
64795;SDS011;51229;51.980;6.722;2022-11-20T07:35:07;16.73;;;8.68;;
64795;SDS011;51229;51.980;6.722;2022-11-20T07:37:36;17.80;;;9.73;;
64795;SDS011;51229;51.980;6.722;2022-11-20T07:40:02;18.77;;;10.00;;
64795;SDS011;51229;51.980;6.722;2022-11-20T07:42:28;19.75;;;11.38;;
64795;SDS011;51229;51.980;6.722;2022-11-20T07:44:55;17.63;;;9.95;;
64795;SDS011;51229;51.980;6.722;2022-11-20T07:47:20;18.17;;;10.10;;
64795;SDS011;51229;51.980;6.722;2022-11-20T07:49:46;19.27;;;9.80;;
64795;SDS011;51229;51.980;6.722;2022-11-20T07:52:11;19.88;;;11.20;;
64795;SDS011;51229;51.980;6.722;2022-11-20T07:54:37;19.52;;;9.68;;
64795;SDS011;51229;51.980;6.722;2022-11-20T07:57:03;19.40;;;10.35;;
64795;SDS011;51229;51.980;6.722;2022-11-20T07:59:29;20.45;;;10.35;;
64795;SDS011;51229;51.980;6.722;2022-11-20T08:01:54;19.80;;;10.95;;
64795;SDS011;51229;51.980;6.722;2022-11-20T08:04:20;21.23;;;11.95;;
64795;SDS011;51229;51.980;6.722;2022-11-20T08:06:51;22.02;;;11.93;;
64795;SDS011;51229;51.980;6.722;2022-11-20T08:09:17;22.77;;;11.60;;
64795;SDS011;51229;51.980;6.722;2022-11-20T08:11:42;21.73;;;11.60;;
64795;SDS011;51229;51.980;6.722;2022-11-20T08:14:27;21.20;;;11.77;;
64795;SDS011;51229;51.980;6.722;2022-11-20T08:16:52;21.48;;;12.30;;
64795;SDS011;51229;51.980;6.722;2022-11-20T08:19:18;20.42;;;10.60;;
64795;SDS011;51229;51.980;6.722;2022-11-20T08:21:44;20.92;;;11.35;;
64795;SDS011;51229;51.980;6.722;2022-11-20T08:24:13;21.00;;;12.40;;
64795;SDS011;51229;51.980;6.722;2022-11-20T08:26:39;20.90;;;12.02;;
64795;SDS011;51229;51.980;6.722;2022-11-20T08:29:05;21.95;;;12.43;;
64795;SDS011;51229;51.980;6.722;2022-11-20T08:31:31;25.85;;;13.90;;
64795;SDS011;51229;51.980;6.722;2022-11-20T08:33:57;26.98;;;14.23;;
64795;SDS011;51229;51.980;6.722;2022-11-20T08:36:24;25.45;;;13.65;;
64795;SDS011;51229;51.980;6.722;2022-11-20T08:38:50;24.25;;;12.77;;
64795;SDS011;51229;51.980;6.722;2022-11-20T08:41:17;26.30;;;12.00;;
64795;SDS011;51229;51.980;6.722;2022-11-20T08:43:59;23.75;;;13.30;;
64795;SDS011;51229;51.980;6.722;2022-11-20T08:46:27;22.95;;;11.70;;
64795;SDS011;51229;51.980;6.722;2022-11-20T08:48:58;24.95;;;13.18;;
64795;SDS011;51229;51.980;6.722;2022-11-20T08:51:24;29.45;;;14.52;;
64795;SDS011;51229;51.980;6.722;2022-11-20T08:53:50;34.35;;;16.70;;
64795;SDS011;51229;51.980;6.722;2022-11-20T08:56:16;29.58;;;15.15;;
64795;SDS011;51229;51.980;6.722;2022-11-20T08:58:42;32.63;;;16.35;;
64795;SDS011;51229;51.980;6.722;2022-11-20T09:01:09;27.60;;;15.18;;
64795;SDS011;51229;51.980;6.722;2022-11-20T09:03:35;28.23;;;15.65;;
64795;SDS011;51229;51.980;6.722;2022-11-20T09:06:01;28.23;;;15.82;;
64795;SDS011;51229;51.980;6.722;2022-11-20T09:08:29;28.25;;;15.57;;
64795;SDS011;51229;51.980;6.722;2022-11-20T09:10:55;28.40;;;15.18;;
64795;SDS011;51229;51.980;6.722;2022-11-20T09:13:23;32.55;;;16.67;;
64795;SDS011;51229;51.980;6.722;2022-11-20T09:15:53;32.78;;;17.65;;
64795;SDS011;51229;51.980;6.722;2022-11-20T09:18:20;28.65;;;15.10;;
64795;SDS011;51229;51.980;6.722;2022-11-20T09:20:46;29.55;;;14.88;;
64795;SDS011;51229;51.980;6.722;2022-11-20T09:23:12;28.23;;;16.83;;
64795;SDS011;51229;51.980;6.722;2022-11-20T09:25:38;29.95;;;15.15;;
64795;SDS011;51229;51.980;6.722;2022-11-20T09:28:03;28.42;;;15.77;;
64795;SDS011;51229;51.980;6.722;2022-11-20T09:30:30;29.13;;;16.00;;
64795;SDS011;51229;51.980;6.722;2022-11-20T09:32:56;30.10;;;15.80;;
64795;SDS011;51229;51.980;6.722;2022-11-20T09:35:22;28.67;;;15.02;;
64795;SDS011;51229;51.980;6.722;2022-11-20T09:37:47;28.65;;;15.48;;
64795;SDS011;51229;51.980;6.722;2022-11-20T09:40:23;28.60;;;16.15;;
64795;SDS011;51229;51.980;6.722;2022-11-20T09:56:36;26.52;;;14.82;;
64795;SDS011;51229;51.980;6.722;2022-11-20T09:59:06;23.17;;;13.95;;
64795;SDS011;51229;51.980;6.722;2022-11-20T10:01:51;25.52;;;14.85;;
64795;SDS011;51229;51.980;6.722;2022-11-20T10:04:18;27.83;;;15.85;;
64795;SDS011;51229;51.980;6.722;2022-11-20T10:09:31;24.30;;;14.02;;
64795;SDS011;51229;51.980;6.722;2022-11-20T10:15:22;24.95;;;13.88;;
64795;SDS011;51229;51.980;6.722;2022-11-20T10:18:09;24.20;;;13.48;;
64795;SDS011;51229;51.980;6.722;2022-11-20T10:20:46;23.63;;;14.20;;
64795;SDS011;51229;51.980;6.722;2022-11-20T10:23:31;24.92;;;13.48;;
64795;SDS011;51229;51.980;6.722;2022-11-20T10:31:38;19.73;;;12.20;;
64795;SDS011;51229;51.980;6.722;2022-11-20T10:36:57;22.02;;;12.65;;
64795;SDS011;51229;51.980;6.722;2022-11-20T10:39:32;21.42;;;12.90;;
64795;SDS011;51229;51.980;6.722;2022-11-20T10:44:40;21.30;;;13.05;;
64795;SDS011;51229;51.980;6.722;2022-11-20T10:47:30;25.10;;;12.95;;
64795;SDS011;51229;51.980;6.722;2022-11-20T10:49:57;22.20;;;13.80;;
64795;SDS011;51229;51.980;6.722;2022-11-20T11:00:50;23.10;;;13.68;;
64795;SDS011;51229;51.980;6.722;2022-11-20T11:03:29;21.05;;;13.00;;
64795;SDS011;51229;51.980;6.722;2022-11-20T11:08:38;23.52;;;13.25;;
64795;SDS011;51229;51.980;6.722;2022-11-20T11:11:23;23.50;;;13.65;;
64795;SDS011;51229;51.980;6.722;2022-11-20T11:13:52;21.35;;;12.70;;
64795;SDS011;51229;51.980;6.722;2022-11-20T11:16:25;19.95;;;12.52;;
64795;SDS011;51229;51.980;6.722;2022-11-20T11:21:28;22.05;;;13.18;;
64795;SDS011;51229;51.980;6.722;2022-11-20T11:24:02;24.10;;;13.07;;
64795;SDS011;51229;51.980;6.722;2022-11-20T11:26:29;25.48;;;14.38;;
64795;SDS011;51229;51.980;6.722;2022-11-20T11:29:02;25.50;;;15.38;;
64795;SDS011;51229;51.980;6.722;2022-11-20T11:31:33;22.70;;;12.65;;
64795;SDS011;51229;51.980;6.722;2022-11-20T11:34:06;22.60;;;13.07;;
64795;SDS011;51229;51.980;6.722;2022-11-20T11:36:38;23.52;;;14.07;;
64795;SDS011;51229;51.980;6.722;2022-11-20T11:39:05;22.23;;;12.77;;
64795;SDS011;51229;51.980;6.722;2022-11-20T11:41:40;22.27;;;13.27;;
64795;SDS011;51229;51.980;6.722;2022-11-20T11:47:05;22.65;;;12.85;;
64795;SDS011;51229;51.980;6.722;2022-11-20T11:49:46;24.50;;;13.43;;
64795;SDS011;51229;51.980;6.722;2022-11-20T11:52:13;23.10;;;13.73;;
64795;SDS011;51229;51.980;6.722;2022-11-20T11:54:50;19.48;;;12.07;;
64795;SDS011;51229;51.980;6.722;2022-11-20T12:00:13;20.63;;;12.02;;
64795;SDS011;51229;51.980;6.722;2022-11-20T12:07:45;22.67;;;13.40;;
64795;SDS011;51229;51.980;6.722;2022-11-20T12:10:29;21.90;;;13.07;;
64795;SDS011;51229;51.980;6.722;2022-11-20T12:13:25;23.38;;;13.93;;
64795;SDS011;51229;51.980;6.722;2022-11-20T12:16:18;19.77;;;12.38;;
64795;SDS011;51229;51.980;6.722;2022-11-20T12:18:45;23.55;;;13.80;;
64795;SDS011;51229;51.980;6.722;2022-11-20T12:26:53;26.38;;;15.15;;
64795;SDS011;51229;51.980;6.722;2022-11-20T12:29:43;26.48;;;14.65;;
64795;SDS011;51229;51.980;6.722;2022-11-20T12:39:58;29.30;;;15.20;;
64795;SDS011;51229;51.980;6.722;2022-11-20T12:56:31;26.50;;;14.55;;
64795;SDS011;51229;51.980;6.722;2022-11-20T13:06:51;23.50;;;13.80;;
64795;SDS011;51229;51.980;6.722;2022-11-20T13:09:17;27.38;;;15.52;;
64795;SDS011;51229;51.980;6.722;2022-11-20T13:14:24;27.13;;;14.30;;
64795;SDS011;51229;51.980;6.722;2022-11-20T13:19:49;28.10;;;14.95;;
64795;SDS011;51229;51.980;6.722;2022-11-20T13:22:29;27.35;;;15.15;;
64795;SDS011;51229;51.980;6.722;2022-11-20T13:25:09;28.33;;;16.98;;
64795;SDS011;51229;51.980;6.722;2022-11-20T13:27:35;26.23;;;13.95;;
64795;SDS011;51229;51.980;6.722;2022-11-20T13:30:13;26.85;;;14.82;;
64795;SDS011;51229;51.980;6.722;2022-11-20T13:35:55;25.15;;;12.90;;
64795;SDS011;51229;51.980;6.722;2022-11-20T13:38:48;23.50;;;14.45;;
64795;SDS011;51229;51.980;6.722;2022-11-20T13:41:26;24.13;;;13.38;;
64795;SDS011;51229;51.980;6.722;2022-11-20T13:44:05;26.90;;;13.95;;
64795;SDS011;51229;51.980;6.722;2022-11-20T13:46:39;22.52;;;13.10;;
64795;SDS011;51229;51.980;6.722;2022-11-20T13:49:14;24.95;;;13.95;;
64795;SDS011;51229;51.980;6.722;2022-11-20T13:52:04;26.77;;;14.13;;
64795;SDS011;51229;51.980;6.722;2022-11-20T13:55:41;22.13;;;12.65;;
64795;SDS011;51229;51.980;6.722;2022-11-20T14:00:16;24.17;;;13.48;;
64795;SDS011;51229;51.980;6.722;2022-11-20T14:02:52;22.77;;;12.48;;
64795;SDS011;51229;51.980;6.722;2022-11-20T14:06:01;24.58;;;14.02;;
64795;SDS011;51229;51.980;6.722;2022-11-20T14:08:45;24.42;;;14.25;;
64795;SDS011;51229;51.980;6.722;2022-11-20T14:13:55;26.58;;;13.25;;
64795;SDS011;51229;51.980;6.722;2022-11-20T14:16:22;24.30;;;14.52;;
64795;SDS011;51229;51.980;6.722;2022-11-20T14:18:49;28.45;;;14.30;;
64795;SDS011;51229;51.980;6.722;2022-11-20T14:21:25;27.05;;;14.55;;
64795;SDS011;51229;51.980;6.722;2022-11-20T14:24:21;26.55;;;14.60;;
64795;SDS011;51229;51.980;6.722;2022-11-20T14:26:48;30.40;;;15.35;;
64795;SDS011;51229;51.980;6.722;2022-11-20T14:29:19;28.30;;;16.52;;
64795;SDS011;51229;51.980;6.722;2022-11-20T14:31:52;30.38;;;15.95;;
64795;SDS011;51229;51.980;6.722;2022-11-20T14:34:23;26.95;;;16.30;;
64795;SDS011;51229;51.980;6.722;2022-11-20T14:36:52;28.52;;;16.38;;
64795;SDS011;51229;51.980;6.722;2022-11-20T14:39:22;30.05;;;15.43;;
64795;SDS011;51229;51.980;6.722;2022-11-20T14:44:22;29.20;;;16.70;;
64795;SDS011;51229;51.980;6.722;2022-11-20T14:46:52;29.17;;;17.05;;
64795;SDS011;51229;51.980;6.722;2022-11-20T14:49:18;29.88;;;16.08;;
64795;SDS011;51229;51.980;6.722;2022-11-20T14:51:44;30.27;;;17.05;;
64795;SDS011;51229;51.980;6.722;2022-11-20T14:56:39;30.38;;;17.80;;
64795;SDS011;51229;51.980;6.722;2022-11-20T14:59:05;32.55;;;16.80;;
64795;SDS011;51229;51.980;6.722;2022-11-20T15:01:32;27.77;;;15.50;;
64795;SDS011;51229;51.980;6.722;2022-11-20T15:03:59;31.23;;;15.07;;
64795;SDS011;51229;51.980;6.722;2022-11-20T15:06:26;29.02;;;16.77;;
64795;SDS011;51229;51.980;6.722;2022-11-20T15:08:54;30.20;;;16.90;;
64795;SDS011;51229;51.980;6.722;2022-11-20T15:11:21;30.48;;;17.30;;
64795;SDS011;51229;51.980;6.722;2022-11-20T15:13:56;29.27;;;16.52;;
64795;SDS011;51229;51.980;6.722;2022-11-20T15:16:23;27.33;;;16.00;;
64795;SDS011;51229;51.980;6.722;2022-11-20T15:18:50;30.90;;;16.40;;
64795;SDS011;51229;51.980;6.722;2022-11-20T15:21:17;23.52;;;12.90;;
64795;SDS011;51229;51.980;6.722;2022-11-20T15:23:45;29.85;;;15.32;;
64795;SDS011;51229;51.980;6.722;2022-11-20T15:26:12;31.85;;;16.15;;
64795;SDS011;51229;51.980;6.722;2022-11-20T15:28:41;34.42;;;15.88;;
64795;SDS011;51229;51.980;6.722;2022-11-20T15:31:12;30.67;;;16.77;;
64795;SDS011;51229;51.980;6.722;2022-11-20T15:33:38;31.75;;;17.40;;
64795;SDS011;51229;51.980;6.722;2022-11-20T15:36:04;35.05;;;18.10;;
64795;SDS011;51229;51.980;6.722;2022-11-20T15:38:30;32.38;;;16.58;;
64795;SDS011;51229;51.980;6.722;2022-11-20T15:40:55;28.67;;;15.30;;
64795;SDS011;51229;51.980;6.722;2022-11-20T15:43:21;28.45;;;15.40;;
64795;SDS011;51229;51.980;6.722;2022-11-20T15:45:48;30.33;;;16.30;;
64795;SDS011;51229;51.980;6.722;2022-11-20T15:48:20;33.58;;;16.75;;
64795;SDS011;51229;51.980;6.722;2022-11-20T15:51:35;29.23;;;16.02;;
64795;SDS011;51229;51.980;6.722;2022-11-20T15:53:35;32.30;;;16.77;;
64795;SDS011;51229;51.980;6.722;2022-11-20T15:56:05;31.98;;;16.80;;
64795;SDS011;51229;51.980;6.722;2022-11-20T15:58:31;29.50;;;16.27;;
64795;SDS011;51229;51.980;6.722;2022-11-20T16:00:57;32.58;;;16.23;;
64795;SDS011;51229;51.980;6.722;2022-11-20T16:03:23;29.08;;;15.32;;
64795;SDS011;51229;51.980;6.722;2022-11-20T16:05:48;33.92;;;16.10;;
64795;SDS011;51229;51.980;6.722;2022-11-20T16:08:14;32.33;;;17.00;;
64795;SDS011;51229;51.980;6.722;2022-11-20T16:10:40;32.38;;;16.73;;
64795;SDS011;51229;51.980;6.722;2022-11-20T16:13:16;31.60;;;17.05;;
64795;SDS011;51229;51.980;6.722;2022-11-20T16:16:05;32.05;;;15.35;;
64795;SDS011;51229;51.980;6.722;2022-11-20T16:18:34;34.50;;;18.77;;
64795;SDS011;51229;51.980;6.722;2022-11-20T16:21:00;33.65;;;16.88;;
64795;SDS011;51229;51.980;6.722;2022-11-20T16:23:26;35.95;;;17.20;;
64795;SDS011;51229;51.980;6.722;2022-11-20T16:25:51;38.72;;;19.20;;
64795;SDS011;51229;51.980;6.722;2022-11-20T16:28:17;32.85;;;17.48;;
64795;SDS011;51229;51.980;6.722;2022-11-20T16:30:44;36.83;;;21.90;;
64795;SDS011;51229;51.980;6.722;2022-11-20T16:33:11;34.75;;;17.77;;
64795;SDS011;51229;51.980;6.722;2022-11-20T16:35:42;30.83;;;15.70;;
64795;SDS011;51229;51.980;6.722;2022-11-20T16:38:08;36.72;;;18.80;;